sensor_id;sensor_type;location;lat;lon;timestamp;pressure;altitude;pressure_sealevel;temperature;humidity
13486;BME280;6815;59.336;17.998;2023-03-13T00:03:41;52131.06;;;-145.37;51.02
13486;BME280;6815;59.336;17.998;2023-03-13T00:06:07;52173.00;;;-145.37;51.39
13486;BME280;6815;59.336;17.998;2023-03-13T00:08:33;52167.00;;;-145.37;51.06
13486;BME280;6815;59.336;17.998;2023-03-13T00:11:02;52182.97;;;-145.37;51.51
13486;BME280;6815;59.336;17.998;2023-03-13T00:13:28;52169.00;;;-145.37;51.54
13486;BME280;6815;59.336;17.998;2023-03-13T00:16:06;52192.97;;;-145.37;52.22
13486;BME280;6815;59.336;17.998;2023-03-13T00:18:32;52202.94;;;-145.37;52.09
13486;BME280;6815;59.336;17.998;2023-03-13T00:21:03;52182.97;;;-145.37;51.74
13486;BME280;6815;59.336;17.998;2023-03-13T00:23:30;52220.91;;;-145.37;51.76
13486;BME280;6815;59.336;17.998;2023-03-13T00:25:58;52177.00;;;-145.37;51.71
13486;BME280;6815;59.336;17.998;2023-03-13T00:28:26;52149.03;;;-145.37;51.89
13486;BME280;6815;59.336;17.998;2023-03-13T00:31:01;52153.03;;;-145.37;52.04
13486;BME280;6815;59.336;17.998;2023-03-13T00:33:37;52155.03;;;-145.37;51.82
13486;BME280;6815;59.336;17.998;2023-03-13T00:36:49;52117.09;;;-145.37;52.11
13486;BME280;6815;59.336;17.998;2023-03-13T00:44:47;52171.00;;;-145.37;51.93
13486;BME280;6815;59.336;17.998;2023-03-13T00:47:16;52228.88;;;-145.37;50.98
13486;BME280;6815;59.336;17.998;2023-03-13T00:49:42;52141.06;;;-145.37;51.55
13486;BME280;6815;59.336;17.998;2023-03-13T00:52:09;52177.00;;;-145.37;51.70
13486;BME280;6815;59.336;17.998;2023-03-13T00:54:34;52208.94;;;-145.37;52.32
13486;BME280;6815;59.336;17.998;2023-03-13T00:56:59;52182.97;;;-145.37;52.19
13486;BME280;6815;59.336;17.998;2023-03-13T00:59:25;52135.06;;;-145.37;51.55
13486;BME280;6815;59.336;17.998;2023-03-13T01:01:50;52145.03;;;-145.37;51.57
13486;BME280;6815;59.336;17.998;2023-03-13T01:04:16;52169.00;;;-145.37;51.40
13486;BME280;6815;59.336;17.998;2023-03-13T01:06:41;52173.00;;;-145.37;51.53
13486;BME280;6815;59.336;17.998;2023-03-13T01:09:10;52165.00;;;-145.37;51.09
13486;BME280;6815;59.336;17.998;2023-03-13T01:11:38;52135.06;;;-145.37;51.06
13486;BME280;6815;59.336;17.998;2023-03-13T01:14:07;52208.94;;;-145.37;51.17
13486;BME280;6815;59.336;17.998;2023-03-13T01:16:35;52141.06;;;-145.37;50.81
13486;BME280;6815;59.336;17.998;2023-03-13T01:19:05;52177.00;;;-145.37;51.46
13486;BME280;6815;59.336;17.998;2023-03-13T01:21:31;52180.97;;;-145.37;51.36
13486;BME280;6815;59.336;17.998;2023-03-13T01:23:57;52143.06;;;-145.37;51.36
13486;BME280;6815;59.336;17.998;2023-03-13T01:26:23;52143.06;;;-145.37;52.30
13486;BME280;6815;59.336;17.998;2023-03-13T01:28:49;52171.00;;;-145.37;52.76
13486;BME280;6815;59.336;17.998;2023-03-13T01:31:17;52159.03;;;-145.37;52.47
13486;BME280;6815;59.336;17.998;2023-03-13T01:33:48;52167.00;;;-145.37;51.14
13486;BME280;6815;59.336;17.998;2023-03-13T01:36:15;52155.03;;;-145.37;51.95
13486;BME280;6815;59.336;17.998;2023-03-13T01:38:43;52127.09;;;-145.37;51.35
13486;BME280;6815;59.336;17.998;2023-03-13T01:41:11;52161.03;;;-145.37;51.14
13486;BME280;6815;59.336;17.998;2023-03-13T01:43:37;52157.03;;;-145.37;51.90
13486;BME280;6815;59.336;17.998;2023-03-13T01:53:55;52163.00;;;-145.37;52.35
13486;BME280;6815;59.336;17.998;2023-03-13T01:56:28;52177.00;;;-145.37;52.56
13486;BME280;6815;59.336;17.998;2023-03-13T01:58:58;52159.03;;;-145.37;51.74
13486;BME280;6815;59.336;17.998;2023-03-13T02:01:24;52173.00;;;-145.37;51.52
13486;BME280;6815;59.336;17.998;2023-03-13T02:03:51;52129.06;;;-145.37;52.24
13486;BME280;6815;59.336;17.998;2023-03-13T02:06:17;52151.03;;;-145.37;53.40
13486;BME280;6815;59.336;17.998;2023-03-13T02:08:50;52186.97;;;-145.37;52.54
13486;BME280;6815;59.336;17.998;2023-03-13T02:11:31;52167.00;;;-145.37;52.48
13486;BME280;6815;59.336;17.998;2023-03-13T02:14:01;52192.97;;;-145.37;52.43
13486;BME280;6815;59.336;17.998;2023-03-13T02:16:27;52135.06;;;-145.37;52.79
13486;BME280;6815;59.336;17.998;2023-03-13T02:18:54;52153.03;;;-145.37;52.62
13486;BME280;6815;59.336;17.998;2023-03-13T02:21:42;52159.03;;;-145.37;52.70
13486;BME280;6815;59.336;17.998;2023-03-13T02:24:37;52149.03;;;-145.37;53.76
13486;BME280;6815;59.336;17.998;2023-03-13T02:27:07;52169.00;;;-145.37;53.88
13486;BME280;6815;59.336;17.998;2023-03-13T02:29:32;52184.97;;;-145.37;53.96
13486;BME280;6815;59.336;17.998;2023-03-13T02:31:58;52178.97;;;-145.37;53.54
13486;BME280;6815;59.336;17.998;2023-03-13T02:34:29;52200.94;;;-145.37;53.25
13486;BME280;6815;59.336;17.998;2023-03-13T02:36:57;52153.03;;;-145.37;53.29
13486;BME280;6815;59.336;17.998;2023-03-13T02:39:24;52157.03;;;-145.37;53.76
13486;BME280;6815;59.336;17.998;2023-03-13T02:41:51;52165.00;;;-145.37;53.64
13486;BME280;6815;59.336;17.998;2023-03-13T02:44:17;52177.00;;;-145.37;54.07
13486;BME280;6815;59.336;17.998;2023-03-13T02:46:45;52163.00;;;-145.37;54.26
13486;BME280;6815;59.336;17.998;2023-03-13T02:49:26;52196.94;;;-145.37;54.69
13486;BME280;6815;59.336;17.998;2023-03-13T02:51:53;52141.06;;;-145.37;54.72
13486;BME280;6815;59.336;17.998;2023-03-13T02:54:34;52137.06;;;-145.37;54.60
13486;BME280;6815;59.336;17.998;2023-03-13T02:57:03;52147.03;;;-145.37;55.17
13486;BME280;6815;59.336;17.998;2023-03-13T02:59:29;52198.94;;;-145.37;55.26
13486;BME280;6815;59.336;17.998;2023-03-13T03:01:54;52175.00;;;-145.37;55.44
13486;BME280;6815;59.336;17.998;2023-03-13T03:04:21;52139.06;;;-145.37;55.31
13486;BME280;6815;59.336;17.998;2023-03-13T03:06:48;52153.03;;;-145.37;55.25
13486;BME280;6815;59.336;17.998;2023-03-13T03:09:14;52133.06;;;-145.37;55.56
13486;BME280;6815;59.336;17.998;2023-03-13T03:11:41;52194.94;;;-145.37;55.44
13486;BME280;6815;59.336;17.998;2023-03-13T03:14:07;52171.00;;;-145.37;55.41
13486;BME280;6815;59.336;17.998;2023-03-13T03:16:33;52143.06;;;-145.37;55.90
13486;BME280;6815;59.336;17.998;2023-03-13T03:18:58;52165.00;;;-145.37;55.96
13486;BME280;6815;59.336;17.998;2023-03-13T03:21:24;52200.94;;;-145.37;55.95
13486;BME280;6815;59.336;17.998;2023-03-13T03:23:50;52163.00;;;-145.37;56.14
13486;BME280;6815;59.336;17.998;2023-03-13T03:26:16;52145.03;;;-145.37;56.32
13486;BME280;6815;59.336;17.998;2023-03-13T03:28:41;52157.03;;;-145.37;56.28
13486;BME280;6815;59.336;17.998;2023-03-13T03:31:08;52163.00;;;-145.37;56.39
13486;BME280;6815;59.336;17.998;2023-03-13T03:33:34;52165.00;;;-145.37;56.89
13486;BME280;6815;59.336;17.998;2023-03-13T03:36:01;52163.00;;;-145.37;56.16
13486;BME280;6815;59.336;17.998;2023-03-13T03:38:27;52147.03;;;-145.37;56.25
13486;BME280;6815;59.336;17.998;2023-03-13T03:40:53;52157.03;;;-145.37;56.05
13486;BME280;6815;59.336;17.998;2023-03-13T03:43:18;52180.97;;;-145.37;56.71
13486;BME280;6815;59.336;17.998;2023-03-13T03:45:43;52147.03;;;-145.37;56.74
13486;BME280;6815;59.336;17.998;2023-03-13T03:48:09;52165.00;;;-145.37;57.03
13486;BME280;6815;59.336;17.998;2023-03-13T03:50:34;52141.06;;;-145.37;56.82
13486;BME280;6815;59.336;17.998;2023-03-13T03:53:00;52188.97;;;-145.37;56.37
13486;BME280;6815;59.336;17.998;2023-03-13T03:55:25;52157.03;;;-145.37;56.74
13486;BME280;6815;59.336;17.998;2023-03-13T03:57:51;52163.00;;;-145.37;56.91
13486;BME280;6815;59.336;17.998;2023-03-13T04:00:17;52184.97;;;-145.37;57.17
13486;BME280;6815;59.336;17.998;2023-03-13T04:02:44;52163.00;;;-145.37;56.89
13486;BME280;6815;59.336;17.998;2023-03-13T04:05:09;52125.09;;;-145.37;57.07
13486;BME280;6815;59.336;17.998;2023-03-13T04:07:35;52171.00;;;-145.37;57.04
13486;BME280;6815;59.336;17.998;2023-03-13T04:10:02;52153.03;;;-145.37;57.83
13486;BME280;6815;59.336;17.998;2023-03-13T04:12:27;52175.00;;;-145.37;57.89
13486;BME280;6815;59.336;17.998;2023-03-13T04:14:54;52165.00;;;-145.37;57.82
13486;BME280;6815;59.336;17.998;2023-03-13T04:17:20;52089.16;;;-145.37;58.12
13486;BME280;6815;59.336;17.998;2023-03-13T04:19:46;52149.03;;;-145.37;58.61
13486;BME280;6815;59.336;17.998;2023-03-13T04:22:12;52171.00;;;-145.37;58.75
13486;BME280;6815;59.336;17.998;2023-03-13T04:24:37;52149.03;;;-145.37;58.72
13486;BME280;6815;59.336;17.998;2023-03-13T04:27:03;52139.06;;;-145.37;59.29
13486;BME280;6815;59.336;17.998;2023-03-13T04:29:31;52171.00;;;-145.37;59.56
13486;BME280;6815;59.336;17.998;2023-03-13T04:31:57;52184.97;;;-145.37;60.07
13486;BME280;6815;59.336;17.998;2023-03-13T04:34:22;52169.00;;;-145.37;59.91
13486;BME280;6815;59.336;17.998;2023-03-13T04:36:48;52159.03;;;-145.37;60.61
13486;BME280;6815;59.336;17.998;2023-03-13T04:39:14;52153.03;;;-145.37;59.45
13486;BME280;6815;59.336;17.998;2023-03-13T04:41:39;52153.03;;;-145.37;58.71
13486;BME280;6815;59.336;17.998;2023-03-13T04:44:05;52145.03;;;-145.37;58.47
13486;BME280;6815;59.336;17.998;2023-03-13T04:46:31;52157.03;;;-145.37;58.94
13486;BME280;6815;59.336;17.998;2023-03-13T04:48:56;52159.03;;;-145.37;58.95
13486;BME280;6815;59.336;17.998;2023-03-13T04:51:25;52141.06;;;-145.37;58.31
13486;BME280;6815;59.336;17.998;2023-03-13T04:53:51;52149.03;;;-145.37;58.90
13486;BME280;6815;59.336;17.998;2023-03-13T04:56:24;52147.03;;;-145.37;58.96
13486;BME280;6815;59.336;17.998;2023-03-13T04:58:50;52157.03;;;-145.37;59.12
13486;BME280;6815;59.336;17.998;2023-03-13T05:01:16;52147.03;;;-145.37;59.34
13486;BME280;6815;59.336;17.998;2023-03-13T05:03:41;52155.03;;;-145.37;59.59
13486;BME280;6815;59.336;17.998;2023-03-13T05:06:07;52178.97;;;-145.37;60.90
13486;BME280;6815;59.336;17.998;2023-03-13T05:08:32;52180.97;;;-145.37;61.12
13486;BME280;6815;59.336;17.998;2023-03-13T05:10:58;52143.06;;;-145.37;61.88
13486;BME280;6815;59.336;17.998;2023-03-13T05:13:24;52167.00;;;-145.37;62.58
13486;BME280;6815;59.336;17.998;2023-03-13T05:15:52;52200.94;;;-145.37;61.61
13486;BME280;6815;59.336;17.998;2023-03-13T05:18:18;52157.03;;;-145.37;61.16
13486;BME280;6815;59.336;17.998;2023-03-13T05:20:44;52182.97;;;-145.37;62.52
13486;BME280;6815;59.336;17.998;2023-03-13T05:23:10;52175.00;;;-145.37;63.16
13486;BME280;6815;59.336;17.998;2023-03-13T05:25:37;52155.03;;;-145.37;64.56
13486;BME280;6815;59.336;17.998;2023-03-13T05:28:03;52157.03;;;-145.37;65.78
13486;BME280;6815;59.336;17.998;2023-03-13T05:30:29;52186.97;;;-145.37;66.46
13486;BME280;6815;59.336;17.998;2023-03-13T05:32:56;52180.97;;;-145.37;66.61
13486;BME280;6815;59.336;17.998;2023-03-13T05:35:22;52177.00;;;-145.37;67.19
13486;BME280;6815;59.336;17.998;2023-03-13T05:37:49;52153.03;;;-145.37;67.48
13486;BME280;6815;59.336;17.998;2023-03-13T05:40:15;52145.03;;;-145.37;68.96
13486;BME280;6815;59.336;17.998;2023-03-13T05:42:40;52159.03;;;-145.37;69.71
13486;BME280;6815;59.336;17.998;2023-03-13T05:45:06;52177.00;;;-145.37;69.67
13486;BME280;6815;59.336;17.998;2023-03-13T05:47:35;52157.03;;;-145.37;70.46
13486;BME280;6815;59.336;17.998;2023-03-13T05:50:03;52173.00;;;-145.37;69.98
13486;BME280;6815;59.336;17.998;2023-03-13T05:52:29;52169.00;;;-145.37;69.79
13486;BME280;6815;59.336;17.998;2023-03-13T05:54:54;52149.03;;;-145.37;70.63
13486;BME280;6815;59.336;17.998;2023-03-13T05:57:20;52177.00;;;-145.37;70.23
13486;BME280;6815;59.336;17.998;2023-03-13T05:59:46;52186.97;;;-145.37;70.10
13486;BME280;6815;59.336;17.998;2023-03-13T06:02:12;52165.00;;;-145.37;70.33
13486;BME280;6815;59.336;17.998;2023-03-13T06:04:37;52163.00;;;-145.37;70.14
13486;BME280;6815;59.336;17.998;2023-03-13T06:07:03;52147.03;;;-145.37;70.60
13486;BME280;6815;59.336;17.998;2023-03-13T06:09:28;52161.03;;;-145.37;70.53
13486;BME280;6815;59.336;17.998;2023-03-13T06:11:56;52228.88;;;-145.37;70.17
13486;BME280;6815;59.336;17.998;2023-03-13T06:14:21;52171.00;;;-145.37;70.31
13486;BME280;6815;59.336;17.998;2023-03-13T06:16:47;52190.97;;;-145.37;69.85
13486;BME280;6815;59.336;17.998;2023-03-13T06:19:12;52216.91;;;-145.37;69.28
13486;BME280;6815;59.336;17.998;2023-03-13T06:21:38;52184.97;;;-145.37;69.87
13486;BME280;6815;59.336;17.998;2023-03-13T06:24:04;52204.94;;;-145.37;70.28
13486;BME280;6815;59.336;17.998;2023-03-13T06:26:30;52173.00;;;-145.37;69.95
13486;BME280;6815;59.336;17.998;2023-03-13T06:28:55;52175.00;;;-145.37;69.79
13486;BME280;6815;59.336;17.998;2023-03-13T06:31:24;52188.97;;;-145.37;69.38
13486;BME280;6815;59.336;17.998;2023-03-13T06:33:55;52182.97;;;-145.37;70.05
13486;BME280;6815;59.336;17.998;2023-03-13T06:36:22;52180.97;;;-145.37;70.21
13486;BME280;6815;59.336;17.998;2023-03-13T06:38:47;52180.97;;;-145.37;69.55
13486;BME280;6815;59.336;17.998;2023-03-13T06:41:14;52163.00;;;-145.37;69.20
13486;BME280;6815;59.336;17.998;2023-03-13T06:43:40;52145.03;;;-145.37;69.44
13486;BME280;6815;59.336;17.998;2023-03-13T06:46:06;52186.97;;;-145.37;69.57
13486;BME280;6815;59.336;17.998;2023-03-13T06:48:32;52198.94;;;-145.37;69.04
13486;BME280;6815;59.336;17.998;2023-03-13T06:50:58;52182.97;;;-145.37;69.14
13486;BME280;6815;59.336;17.998;2023-03-13T06:53:24;52206.94;;;-145.37;68.73
13486;BME280;6815;59.336;17.998;2023-03-13T06:55:50;52198.94;;;-145.37;68.86
13486;BME280;6815;59.336;17.998;2023-03-13T06:58:19;52210.91;;;-145.37;68.76
13486;BME280;6815;59.336;17.998;2023-03-13T07:00:47;52192.97;;;-145.37;68.86
13486;BME280;6815;59.336;17.998;2023-03-13T07:03:12;52204.94;;;-145.37;69.10
13486;BME280;6815;59.336;17.998;2023-03-13T07:05:38;52224.91;;;-145.37;69.24
13486;BME280;6815;59.336;17.998;2023-03-13T07:08:05;52200.94;;;-145.37;69.38
13486;BME280;6815;59.336;17.998;2023-03-13T07:10:31;52212.91;;;-145.37;68.72
13486;BME280;6815;59.336;17.998;2023-03-13T07:12:56;52196.94;;;-145.37;68.83
13486;BME280;6815;59.336;17.998;2023-03-13T07:15:22;52208.94;;;-145.37;68.60
13486;BME280;6815;59.336;17.998;2023-03-13T07:17:47;52180.97;;;-145.37;68.33
13486;BME280;6815;59.336;17.998;2023-03-13T07:20:13;52188.97;;;-145.37;68.89
13486;BME280;6815;59.336;17.998;2023-03-13T07:22:39;52234.88;;;-145.37;68.90
13486;BME280;6815;59.336;17.998;2023-03-13T07:25:05;52173.00;;;-145.37;68.49
13486;BME280;6815;59.336;17.998;2023-03-13T07:27:31;52198.94;;;-145.37;68.17
13486;BME280;6815;59.336;17.998;2023-03-13T07:29:56;52216.91;;;-145.37;68.14
13486;BME280;6815;59.336;17.998;2023-03-13T07:32:23;52212.91;;;-145.37;68.11
13486;BME280;6815;59.336;17.998;2023-03-13T07:34:48;52175.00;;;-145.37;67.86
13486;BME280;6815;59.336;17.998;2023-03-13T07:37:15;52258.84;;;-145.37;66.88
13486;BME280;6815;59.336;17.998;2023-03-13T07:39:42;52222.91;;;-145.37;67.02
13486;BME280;6815;59.336;17.998;2023-03-13T07:42:10;52212.91;;;-145.37;67.09
13486;BME280;6815;59.336;17.998;2023-03-13T07:44:36;52218.91;;;-145.37;66.69
13486;BME280;6815;59.336;17.998;2023-03-13T07:47:01;52184.97;;;-145.37;67.03
13486;BME280;6815;59.336;17.998;2023-03-13T07:49:27;52182.97;;;-145.37;66.47
13486;BME280;6815;59.336;17.998;2023-03-13T07:51:52;52178.97;;;-145.37;66.17
13486;BME280;6815;59.336;17.998;2023-03-13T07:54:18;52206.94;;;-145.37;66.14
13486;BME280;6815;59.336;17.998;2023-03-13T07:56:45;52214.91;;;-145.37;66.04
13486;BME280;6815;59.336;17.998;2023-03-13T07:59:10;52212.91;;;-145.37;66.03
13486;BME280;6815;59.336;17.998;2023-03-13T08:01:36;52210.91;;;-145.37;66.08
13486;BME280;6815;59.336;17.998;2023-03-13T08:04:01;52182.97;;;-145.37;66.36
13486;BME280;6815;59.336;17.998;2023-03-13T08:06:30;52232.88;;;-145.37;66.59
13486;BME280;6815;59.336;17.998;2023-03-13T08:08:56;52196.94;;;-145.37;67.16
13486;BME280;6815;59.336;17.998;2023-03-13T08:11:23;52180.97;;;-145.37;68.75
13486;BME280;6815;59.336;17.998;2023-03-13T08:13:50;52206.94;;;-145.37;69.79
13486;BME280;6815;59.336;17.998;2023-03-13T08:16:20;52208.94;;;-145.37;70.02
13486;BME280;6815;59.336;17.998;2023-03-13T08:18:48;52206.94;;;-145.37;71.79
13486;BME280;6815;59.336;17.998;2023-03-13T08:21:22;52165.00;;;-145.37;72.90
13486;BME280;6815;59.336;17.998;2023-03-13T08:23:51;52222.91;;;-145.37;74.70
13486;BME280;6815;59.336;17.998;2023-03-13T08:26:19;52206.94;;;-145.37;76.07
13486;BME280;6815;59.336;17.998;2023-03-13T08:28:46;52240.88;;;-145.37;77.64
13486;BME280;6815;59.336;17.998;2023-03-13T08:31:19;52216.91;;;-145.37;78.46
13486;BME280;6815;59.336;17.998;2023-03-13T08:33:46;52175.00;;;-145.37;80.06
13486;BME280;6815;59.336;17.998;2023-03-13T08:36:16;52198.94;;;-145.37;80.99
13486;BME280;6815;59.336;17.998;2023-03-13T08:38:42;52190.97;;;-145.37;82.28
13486;BME280;6815;59.336;17.998;2023-03-13T08:41:09;52184.97;;;-145.37;83.84
13486;BME280;6815;59.336;17.998;2023-03-13T08:43:34;52202.94;;;-145.37;84.96
13486;BME280;6815;59.336;17.998;2023-03-13T08:46:00;52202.94;;;-145.37;85.56
13486;BME280;6815;59.336;17.998;2023-03-13T08:48:25;52210.91;;;-145.37;87.13
13486;BME280;6815;59.336;17.998;2023-03-13T08:51:02;52208.94;;;-145.37;87.20
13486;BME280;6815;59.336;17.998;2023-03-13T08:53:28;52204.94;;;-145.37;87.98
13486;BME280;6815;59.336;17.998;2023-03-13T08:55:54;52177.00;;;-145.37;89.06
13486;BME280;6815;59.336;17.998;2023-03-13T08:58:19;52276.81;;;-145.37;90.03
13486;BME280;6815;59.336;17.998;2023-03-13T09:00:45;52196.94;;;-145.37;90.71
13486;BME280;6815;59.336;17.998;2023-03-13T09:03:10;52214.91;;;-145.37;90.20
13486;BME280;6815;59.336;17.998;2023-03-13T09:05:37;52198.94;;;-145.37;90.46
13486;BME280;6815;59.336;17.998;2023-03-13T09:08:02;52204.94;;;-145.37;90.80
13486;BME280;6815;59.336;17.998;2023-03-13T09:10:28;52196.94;;;-145.37;90.82
13486;BME280;6815;59.336;17.998;2023-03-13T09:12:54;52190.97;;;-145.37;91.50
13486;BME280;6815;59.336;17.998;2023-03-13T09:15:20;52214.91;;;-145.37;91.39
13486;BME280;6815;59.336;17.998;2023-03-13T09:17:45;52194.94;;;-145.37;93.26
13486;BME280;6815;59.336;17.998;2023-03-13T09:20:11;52175.00;;;-145.37;93.20
13486;BME280;6815;59.336;17.998;2023-03-13T09:22:37;52208.94;;;-145.37;93.96
13486;BME280;6815;59.336;17.998;2023-03-13T09:25:03;52232.88;;;-145.37;93.59
13486;BME280;6815;59.336;17.998;2023-03-13T09:27:28;52204.94;;;-145.37;93.90
13486;BME280;6815;59.336;17.998;2023-03-13T09:29:54;52202.94;;;-145.37;95.32
13486;BME280;6815;59.336;17.998;2023-03-13T09:32:19;52184.97;;;-145.37;95.17
13486;BME280;6815;59.336;17.998;2023-03-13T09:34:45;52248.84;;;-145.37;96.32
13486;BME280;6815;59.336;17.998;2023-03-13T09:37:11;52224.91;;;-145.37;96.71
13486;BME280;6815;59.336;17.998;2023-03-13T09:39:37;52192.97;;;-145.37;96.37
13486;BME280;6815;59.336;17.998;2023-03-13T09:42:31;52194.94;;;-145.37;96.88
13486;BME280;6815;59.336;17.998;2023-03-13T09:45:05;52198.94;;;-145.37;96.65
13486;BME280;6815;59.336;17.998;2023-03-13T09:47:41;52212.91;;;-145.37;96.75
13486;BME280;6815;59.336;17.998;2023-03-13T09:52:40;52171.00;;;-145.37;96.33
13486;BME280;6815;59.336;17.998;2023-03-13T09:55:22;52220.91;;;-145.37;95.80
13486;BME280;6815;59.336;17.998;2023-03-13T09:57:55;52208.94;;;-145.37;95.92
13486;BME280;6815;59.336;17.998;2023-03-13T10:00:30;52214.91;;;-145.37;95.69
13486;BME280;6815;59.336;17.998;2023-03-13T10:05:28;52210.91;;;-145.37;95.11
13486;BME280;6815;59.336;17.998;2023-03-13T10:08:23;52208.94;;;-145.37;95.66
13486;BME280;6815;59.336;17.998;2023-03-13T10:10:57;52232.88;;;-145.37;95.75
13486;BME280;6815;59.336;17.998;2023-03-13T10:16:48;52208.94;;;-145.37;96.12
13486;BME280;6815;59.336;17.998;2023-03-13T10:19:22;52196.94;;;-145.37;95.91
13486;BME280;6815;59.336;17.998;2023-03-13T10:21:52;52216.91;;;-145.37;95.40
13486;BME280;6815;59.336;17.998;2023-03-13T10:26:47;52214.91;;;-145.37;96.05
13486;BME280;6815;59.336;17.998;2023-03-13T10:29:25;52216.91;;;-145.37;96.72
13486;BME280;6815;59.336;17.998;2023-03-13T10:32:02;52226.91;;;-145.37;96.82
13486;BME280;6815;59.336;17.998;2023-03-13T10:34:44;52212.91;;;-145.37;96.42
13486;BME280;6815;59.336;17.998;2023-03-13T10:37:14;52178.97;;;-145.37;96.36
13486;BME280;6815;59.336;17.998;2023-03-13T10:39:40;52212.91;;;-145.37;96.57
13486;BME280;6815;59.336;17.998;2023-03-13T10:44:35;52216.91;;;-145.37;96.79
13486;BME280;6815;59.336;17.998;2023-03-13T10:47:02;52216.91;;;-145.37;96.85
13486;BME280;6815;59.336;17.998;2023-03-13T10:49:30;52214.91;;;-145.37;96.60
13486;BME280;6815;59.336;17.998;2023-03-13T10:51:59;52206.94;;;-145.37;95.98
13486;BME280;6815;59.336;17.998;2023-03-13T10:54:32;52240.88;;;-145.37;96.38
13486;BME280;6815;59.336;17.998;2023-03-13T10:59:48;52288.78;;;-145.37;96.74
13486;BME280;6815;59.336;17.998;2023-03-13T11:04:52;52226.91;;;-145.37;97.30
13486;BME280;6815;59.336;17.998;2023-03-13T11:10:17;52230.88;;;-145.37;97.97
13486;BME280;6815;59.336;17.998;2023-03-13T11:12:45;52248.84;;;-145.37;97.99
13486;BME280;6815;59.336;17.998;2023-03-13T11:15:16;52206.94;;;-145.37;98.52
13486;BME280;6815;59.336;17.998;2023-03-13T11:17:47;52252.84;;;-145.37;98.40
13486;BME280;6815;59.336;17.998;2023-03-13T11:20:27;52232.88;;;-145.37;97.88
13486;BME280;6815;59.336;17.998;2023-03-13T11:23:10;52208.94;;;-145.37;98.06
13486;BME280;6815;59.336;17.998;2023-03-13T11:31:05;52216.91;;;-145.37;98.45
13486;BME280;6815;59.336;17.998;2023-03-13T11:39:26;52238.88;;;-145.37;98.26
13486;BME280;6815;59.336;17.998;2023-03-13T11:47:32;52232.88;;;-145.37;98.18
13486;BME280;6815;59.336;17.998;2023-03-13T11:50:11;52260.84;;;-145.37;98.22
13486;BME280;6815;59.336;17.998;2023-03-13T11:55:28;52212.91;;;-145.37;99.28
13486;BME280;6815;59.336;17.998;2023-03-13T11:58:22;52218.91;;;-145.37;99.30
13486;BME280;6815;59.336;17.998;2023-03-13T12:00:57;52216.91;;;-145.37;99.08
13486;BME280;6815;59.336;17.998;2023-03-13T12:03:38;52188.97;;;-145.37;99.21
13486;BME280;6815;59.336;17.998;2023-03-13T12:06:16;52240.88;;;-145.37;99.28
13486;BME280;6815;59.336;17.998;2023-03-13T12:08:52;52302.75;;;-145.37;99.40
13486;BME280;6815;59.336;17.998;2023-03-13T12:11:25;52184.97;;;-145.37;99.80
13486;BME280;6815;59.336;17.998;2023-03-13T12:14:05;52224.91;;;-145.37;99.09
13486;BME280;6815;59.336;17.998;2023-03-13T12:16:47;52246.84;;;-145.37;99.03
13486;BME280;6815;59.336;17.998;2023-03-13T12:19:28;52218.91;;;-145.37;98.77
13486;BME280;6815;59.336;17.998;2023-03-13T12:21:57;52204.94;;;-145.37;98.75
13486;BME280;6815;59.336;17.998;2023-03-13T12:24:34;52202.94;;;-145.37;98.94
13486;BME280;6815;59.336;17.998;2023-03-13T12:27:19;52208.94;;;-145.37;99.37
13486;BME280;6815;59.336;17.998;2023-03-13T12:29:54;52192.97;;;-145.37;98.94
13486;BME280;6815;59.336;17.998;2023-03-13T12:32:33;52198.94;;;-145.37;98.89
13486;BME280;6815;59.336;17.998;2023-03-13T12:41:05;52218.91;;;-145.37;99.49
13486;BME280;6815;59.336;17.998;2023-03-13T12:43:38;52210.91;;;-145.37;99.49
13486;BME280;6815;59.336;17.998;2023-03-13T12:52:02;52228.88;;;-145.37;99.50
13486;BME280;6815;59.336;17.998;2023-03-13T13:00:38;52216.91;;;-145.37;99.20
13486;BME280;6815;59.336;17.998;2023-03-13T13:03:13;52232.88;;;-145.37;99.66
13486;BME280;6815;59.336;17.998;2023-03-13T13:06:17;52228.88;;;-145.37;99.28
13486;BME280;6815;59.336;17.998;2023-03-13T13:09:08;52200.94;;;-145.37;99.23
13486;BME280;6815;59.336;17.998;2023-03-13T13:19:49;52234.88;;;-145.37;99.15
13486;BME280;6815;59.336;17.998;2023-03-13T13:32:54;52286.78;;;-145.37;99.29
13486;BME280;6815;59.336;17.998;2023-03-13T13:37:49;52204.94;;;-145.37;99.25
13486;BME280;6815;59.336;17.998;2023-03-13T13:42:50;52220.91;;;-145.37;99.55
13486;BME280;6815;59.336;17.998;2023-03-13T13:47:47;52177.00;;;-145.37;99.79
13486;BME280;6815;59.336;17.998;2023-03-13T13:50:22;52220.91;;;-145.37;99.89
13486;BME280;6815;59.336;17.998;2023-03-13T13:52:49;52248.84;;;-145.37;100.00
13486;BME280;6815;59.336;17.998;2023-03-13T13:57:58;52250.84;;;-145.37;99.88
13486;BME280;6815;59.336;17.998;2023-03-13T14:00:26;52256.84;;;-145.37;99.56
13486;BME280;6815;59.336;17.998;2023-03-13T14:02:56;52226.91;;;-145.37;99.81
13486;BME280;6815;59.336;17.998;2023-03-13T14:05:24;52200.94;;;-145.37;99.69
13486;BME280;6815;59.336;17.998;2023-03-13T14:08:25;52216.91;;;-145.37;99.91
13486;BME280;6815;59.336;17.998;2023-03-13T14:11:04;52216.91;;;-145.37;100.00
13486;BME280;6815;59.336;17.998;2023-03-13T14:13:32;52198.94;;;-145.37;100.00
13486;BME280;6815;59.336;17.998;2023-03-13T14:16:18;52204.94;;;-145.37;100.00
13486;BME280;6815;59.336;17.998;2023-03-13T14:18:45;52222.91;;;-145.37;100.00
13486;BME280;6815;59.336;17.998;2023-03-13T14:21:10;52216.91;;;-145.37;100.00
13486;BME280;6815;59.336;17.998;2023-03-13T14:23:39;52220.91;;;-145.37;100.00
13486;BME280;6815;59.336;17.998;2023-03-13T14:28:45;52214.91;;;-145.37;100.00
13486;BME280;6815;59.336;17.998;2023-03-13T14:31:24;52198.94;;;-145.37;100.00
13486;BME280;6815;59.336;17.998;2023-03-13T14:33:50;52198.94;;;-145.37;100.00
13486;BME280;6815;59.336;17.998;2023-03-13T14:36:16;52224.91;;;-145.37;100.00